Time;durP1;ratioP1;P1;durP2;ratioP2;P2;SDS_P1;SDS_P2;PMS_P1;PMS_P2;Temp;Humidity;BMP_temperature;BMP_pressure;BME280_temperature;BME280_humidity;BME280_pressure;Samples;Min_cycle;Max_cycle;Signal;HPM_P1;HPM_P2
2022/10/22 00:01:20;;;;;;;38.77;24.60;;;;;;;;;;4944300;28;20194;-36
2022/10/22 00:03:46;;;;;;;39.77;25.67;;;;;;;;;;4944922;28;20186;-37
2022/10/22 00:06:13;;;;;;;37.13;25.47;;;;;;;;;;4944316;28;20595;-37
2022/10/22 00:08:39;;;;;;;34.83;22.97;;;;;;;;;;4944166;28;20186;-36
2022/10/22 00:11:12;;;;;;;33.23;21.27;;;;;;;;;;4946832;28;20710;-36
2022/10/22 00:13:38;;;;;;;30.47;19.43;;;;;;;;;;4944658;28;20678;-36
2022/10/22 00:16:04;;;;;;;27.07;17.60;;;;;;;;;;4939876;28;20928;-36
2022/10/22 00:18:30;;;;;;;29.00;18.27;;;;;;;;;;4945415;28;20188;-37
2022/10/22 00:20:57;;;;;;;24.90;15.03;;;;;;;;;;4944865;28;20190;-37
2022/10/22 00:23:23;;;;;;;24.63;16.40;;;;;;;;;;4938721;28;20273;-37
2022/10/22 00:25:49;;;;;;;21.77;13.50;;;;;;;;;;4942955;28;20789;-37
2022/10/22 00:28:15;;;;;;;19.37;12.63;;;;;;;;;;4944280;28;20189;-37
2022/10/22 00:30:41;;;;;;;25.33;13.67;;;;;;;;;;4943403;28;21141;-36
2022/10/22 00:33:07;;;;;;;22.23;13.17;;;;;;;;;;4939860;28;21728;-37
2022/10/22 00:35:33;;;;;;;19.60;12.83;;;;;;;;;;4939983;28;20182;-37
2022/10/22 00:37:59;;;;;;;20.90;11.23;;;;;;;;;;4941818;28;20265;-36
2022/10/22 00:40:25;;;;;;;18.87;11.37;;;;;;;;;;4939592;28;20755;-36
2022/10/22 00:42:51;;;;;;;20.73;11.00;;;;;;;;;;4946299;28;20693;-37
2022/10/22 00:45:20;;;;;;;21.47;11.63;;;;;;;;;;4946380;28;20193;-37
2022/10/22 00:48:08;;;;;;;22.47;11.80;;;;;;;;;;4944944;28;20919;-37
2022/10/22 00:50:34;;;;;;;18.90;11.07;;;;;;;;;;4943548;28;20186;-37
2022/10/22 00:53:01;;;;;;;18.87;10.57;;;;;;;;;;4947158;28;20195;-37
2022/10/22 00:55:29;;;;;;;19.27;9.97;;;;;;;;;;4943744;28;20178;-36
2022/10/22 00:57:55;;;;;;;16.53;10.13;;;;;;;;;;4946879;28;20187;-37
2022/10/22 01:00:22;;;;;;;18.53;10.40;;;;;;;;;;4944041;28;20662;-36
2022/10/22 01:02:49;;;;;;;17.40;10.63;;;;;;;;;;4948188;28;20189;-37
2022/10/22 01:05:15;;;;;;;15.53;10.60;;;;;;;;;;4945554;28;20214;-37
2022/10/22 01:07:44;;;;;;;19.80;10.17;;;;;;;;;;4941902;28;20285;-37
2022/10/22 01:10:25;;;;;;;19.77;10.50;;;;;;;;;;4947415;28;20638;-36
2022/10/22 01:12:51;;;;;;;15.83;10.27;;;;;;;;;;4942250;28;21418;-34
2022/10/22 01:15:26;;;;;;;16.33;10.20;;;;;;;;;;4942901;28;20602;-35
2022/10/22 01:17:56;;;;;;;18.13;9.90;;;;;;;;;;4945501;28;20178;-35
2022/10/22 01:20:26;;;;;;;12.93;8.23;;;;;;;;;;4940626;28;20166;-36
2022/10/22 01:22:55;;;;;;;14.17;8.90;;;;;;;;;;4940531;28;20515;-35
2022/10/22 01:25:27;;;;;;;16.73;8.87;;;;;;;;;;4943382;28;20185;-35
2022/10/22 01:28:02;;;;;;;18.07;8.43;;;;;;;;;;4945748;28;20291;-35
2022/10/22 01:30:29;;;;;;;14.10;8.00;;;;;;;;;;4938178;28;20205;-35
2022/10/22 01:32:58;;;;;;;16.40;7.57;;;;;;;;;;4939383;28;20316;-35
2022/10/22 01:35:27;;;;;;;16.10;7.77;;;;;;;;;;4943709;28;20213;-35
2022/10/22 01:37:58;;;;;;;14.33;7.60;;;;;;;;;;4946824;28;20162;-35
2022/10/22 01:40:24;;;;;;;16.53;7.83;;;;;;;;;;4942950;28;20655;-36
2022/10/22 01:42:57;;;;;;;17.20;7.80;;;;;;;;;;4944000;28;20186;-36
2022/10/22 01:45:24;;;;;;;14.03;7.03;;;;;;;;;;4948511;28;20277;-35
2022/10/22 01:48:10;;;;;;;15.13;7.90;;;;;;;;;;4944125;28;20455;-36
2022/10/22 01:50:44;;;;;;;14.93;6.60;;;;;;;;;;4932084;28;20273;-36
2022/10/22 01:53:13;;;;;;;14.40;7.23;;;;;;;;;;4943520;28;20653;-36
2022/10/22 01:56:06;;;;;;;13.60;6.70;;;;;;;;;;4944171;28;20179;-35
2022/10/22 01:59:01;;;;;;;9.90;6.57;;;;;;;;;;4937439;28;20183;-35
2022/10/22 02:01:39;;;;;;;12.33;6.50;;;;;;;;;;4935874;28;20190;-35
2022/10/22 02:04:09;;;;;;;13.13;6.70;;;;;;;;;;4942173;28;20289;-35
2022/10/22 02:06:37;;;;;;;16.90;6.70;;;;;;;;;;4946607;28;20342;-35
2022/10/22 02:09:03;;;;;;;13.50;6.37;;;;;;;;;;4941200;28;20643;-35
2022/10/22 02:11:29;;;;;;;8.93;5.63;;;;;;;;;;4942669;28;20198;-35
2022/10/22 02:13:57;;;;;;;12.00;6.33;;;;;;;;;;4941345;28;20278;-35
2022/10/22 02:16:37;;;;;;;12.80;5.87;;;;;;;;;;4943540;28;20174;-35
2022/10/22 02:19:12;;;;;;;13.10;6.20;;;;;;;;;;4939811;28;20329;-35
2022/10/22 02:21:38;;;;;;;12.40;5.60;;;;;;;;;;4939407;28;20264;-34
2022/10/22 02:24:05;;;;;;;12.67;5.80;;;;;;;;;;4940951;28;21157;-34
2022/10/22 02:26:38;;;;;;;12.80;5.43;;;;;;;;;;4943300;28;20189;-35
2022/10/22 02:29:16;;;;;;;13.90;5.80;;;;;;;;;;4943112;28;20279;-35
2022/10/22 02:31:44;;;;;;;14.50;5.33;;;;;;;;;;4939499;28;20198;-35
2022/10/22 02:34:12;;;;;;;12.93;5.80;;;;;;;;;;4941041;28;20175;-35
2022/10/22 02:36:40;;;;;;;12.53;5.00;;;;;;;;;;4942703;28;20661;-34
2022/10/22 02:39:07;;;;;;;16.33;5.23;;;;;;;;;;4940443;28;20177;-35
2022/10/22 02:41:33;;;;;;;12.07;5.40;;;;;;;;;;4942458;28;20436;-34
2022/10/22 02:44:01;;;;;;;10.67;5.17;;;;;;;;;;4943427;28;20605;-35
2022/10/22 02:46:27;;;;;;;11.80;5.00;;;;;;;;;;4941469;28;20830;-35
2022/10/22 02:48:53;;;;;;;13.43;5.10;;;;;;;;;;4936138;28;20649;-35
2022/10/22 02:51:19;;;;;;;13.33;5.03;;;;;;;;;;4940096;28;20194;-36
2022/10/22 02:53:46;;;;;;;11.07;4.93;;;;;;;;;;4936853;28;20175;-36
2022/10/22 02:56:13;;;;;;;10.63;4.80;;;;;;;;;;4935316;28;20186;-35
2022/10/22 02:58:39;;;;;;;10.67;5.10;;;;;;;;;;4939295;28;20892;-35
2022/10/22 03:01:05;;;;;;;11.87;5.27;;;;;;;;;;4944266;28;20904;-35
2022/10/22 03:03:31;;;;;;;11.10;4.80;;;;;;;;;;4943405;28;20528;-36
2022/10/22 03:05:57;;;;;;;11.73;5.10;;;;;;;;;;4941661;28;20489;-35
2022/10/22 03:08:23;;;;;;;9.83;4.90;;;;;;;;;;4931125;28;20281;-35
2022/10/22 03:10:49;;;;;;;9.07;4.77;;;;;;;;;;4941566;28;20297;-35
2022/10/22 03:13:15;;;;;;;11.30;5.37;;;;;;;;;;4944678;28;20207;-35
2022/10/22 03:15:41;;;;;;;11.53;4.60;;;;;;;;;;4943573;28;20377;-36
2022/10/22 03:18:07;;;;;;;8.80;4.90;;;;;;;;;;4943610;28;20182;-35
2022/10/22 03:20:33;;;;;;;13.23;5.03;;;;;;;;;;4949491;28;20182;-35
2022/10/22 03:23:00;;;;;;;13.40;4.80;;;;;;;;;;4950019;28;20626;-35
2022/10/22 03:25:27;;;;;;;10.80;4.90;;;;;;;;;;4941518;28;20645;-35
2022/10/22 03:27:55;;;;;;;14.90;4.50;;;;;;;;;;4940459;28;21173;-35
2022/10/22 03:30:21;;;;;;;12.83;5.33;;;;;;;;;;4949025;28;20191;-35
2022/10/22 03:32:47;;;;;;;11.97;5.30;;;;;;;;;;4944793;28;20237;-35
2022/10/22 03:35:13;;;;;;;11.33;4.70;;;;;;;;;;4941427;28;20329;-35
2022/10/22 03:37:39;;;;;;;10.93;5.00;;;;;;;;;;4947720;28;20293;-36
2022/10/22 03:40:06;;;;;;;11.03;4.83;;;;;;;;;;4947057;28;20178;-35
2022/10/22 03:42:32;;;;;;;14.73;5.00;;;;;;;;;;4944060;28;20677;-35
2022/10/22 03:44:58;;;;;;;11.57;4.53;;;;;;;;;;4943482;28;20186;-37
2022/10/22 03:47:24;;;;;;;12.47;5.07;;;;;;;;;;4942304;28;20187;-35
2022/10/22 03:49:51;;;;;;;13.87;4.93;;;;;;;;;;4945547;28;20178;-36
2022/10/22 03:52:17;;;;;;;13.10;4.60;;;;;;;;;;4941404;28;20295;-36
2022/10/22 03:54:43;;;;;;;10.53;4.27;;;;;;;;;;4940699;28;20185;-36
2022/10/22 03:57:09;;;;;;;7.70;3.93;;;;;;;;;;4944269;28;20189;-35
2022/10/22 03:59:36;;;;;;;9.60;3.87;;;;;;;;;;4941547;28;20878;-36
2022/10/22 04:02:03;;;;;;;12.27;4.17;;;;;;;;;;4942962;28;20284;-36
2022/10/22 04:04:29;;;;;;;13.30;4.53;;;;;;;;;;4945040;28;20633;-36
2022/10/22 04:06:55;;;;;;;8.60;4.00;;;;;;;;;;4946774;28;20449;-35
2022/10/22 04:09:21;;;;;;;14.87;4.30;;;;;;;;;;4944361;28;20216;-35
2022/10/22 04:11:47;;;;;;;11.57;4.60;;;;;;;;;;4946277;28;20198;-35
2022/10/22 04:14:14;;;;;;;13.27;4.40;;;;;;;;;;4948043;28;20248;-35
2022/10/22 04:16:40;;;;;;;9.97;3.57;;;;;;;;;;4944487;28;20741;-36
2022/10/22 04:19:07;;;;;;;11.63;4.30;;;;;;;;;;4944576;28;20308;-35
2022/10/22 04:21:33;;;;;;;10.97;3.57;;;;;;;;;;4946920;28;21012;-35
2022/10/22 04:23:59;;;;;;;11.20;3.93;;;;;;;;;;4947791;28;20571;-35
2022/10/22 04:26:25;;;;;;;12.13;3.97;;;;;;;;;;4942918;28;20182;-35
2022/10/22 04:28:52;;;;;;;9.17;4.00;;;;;;;;;;4946784;28;20718;-35
2022/10/22 04:31:20;;;;;;;10.53;4.47;;;;;;;;;;4944353;28;20189;-35
2022/10/22 04:33:46;;;;;;;10.00;4.03;;;;;;;;;;4945060;28;20575;-35
2022/10/22 04:36:14;;;;;;;9.33;4.23;;;;;;;;;;4946528;28;20361;-36
2022/10/22 04:38:41;;;;;;;10.80;4.03;;;;;;;;;;4946694;28;20460;-34
2022/10/22 04:41:08;;;;;;;9.43;3.90;;;;;;;;;;4944707;28;20178;-35
2022/10/22 04:43:34;;;;;;;9.57;3.83;;;;;;;;;;4945024;28;20531;-36
2022/10/22 04:46:00;;;;;;;13.23;4.43;;;;;;;;;;4946389;28;20182;-35
2022/10/22 04:48:27;;;;;;;10.03;3.90;;;;;;;;;;4947501;28;20189;-35
2022/10/22 04:50:53;;;;;;;10.30;3.73;;;;;;;;;;4949188;28;21893;-35
2022/10/22 04:53:19;;;;;;;10.40;3.80;;;;;;;;;;4943715;28;21414;-35
2022/10/22 04:55:45;;;;;;;7.73;3.87;;;;;;;;;;4944770;28;20174;-35
2022/10/22 04:58:11;;;;;;;11.07;4.07;;;;;;;;;;4950897;28;20179;-35
2022/10/22 05:00:37;;;;;;;5.83;3.47;;;;;;;;;;4945058;28;20683;-35
2022/10/22 05:03:03;;;;;;;10.37;4.40;;;;;;;;;;4941935;28;20615;-36
2022/10/22 05:05:29;;;;;;;12.40;4.30;;;;;;;;;;4944319;28;20188;-35
2022/10/22 05:07:55;;;;;;;10.67;4.57;;;;;;;;;;4943216;28;20202;-36
2022/10/22 05:10:21;;;;;;;9.10;4.17;;;;;;;;;;4941022;28;20592;-36
2022/10/22 05:12:47;;;;;;;12.97;4.43;;;;;;;;;;4944773;28;20203;-35
2022/10/22 05:15:13;;;;;;;8.63;4.13;;;;;;;;;;4945790;28;20179;-35
2022/10/22 05:17:39;;;;;;;12.40;4.93;;;;;;;;;;4943250;28;20878;-36
2022/10/22 05:20:05;;;;;;;11.17;4.43;;;;;;;;;;4944030;28;20213;-35
2022/10/22 05:22:33;;;;;;;12.40;4.67;;;;;;;;;;4946585;28;20595;-35
2022/10/22 05:24:59;;;;;;;11.87;4.60;;;;;;;;;;4946786;28;20781;-35
2022/10/22 05:27:25;;;;;;;14.03;5.00;;;;;;;;;;4942919;28;20265;-35
2022/10/22 05:29:51;;;;;;;8.83;4.40;;;;;;;;;;4944329;28;20421;-35
2022/10/22 05:32:17;;;;;;;17.80;5.93;;;;;;;;;;4944572;28;20217;-34
2022/10/22 05:34:43;;;;;;;13.80;5.50;;;;;;;;;;4944337;28;20186;-35
2022/10/22 05:37:10;;;;;;;14.77;4.93;;;;;;;;;;4943833;28;20174;-35
2022/10/22 05:39:38;;;;;;;13.07;4.90;;;;;;;;;;4943720;28;20253;-35
2022/10/22 05:42:05;;;;;;;20.07;5.47;;;;;;;;;;4944943;28;20189;-35
2022/10/22 05:44:31;;;;;;;12.07;5.40;;;;;;;;;;4949285;28;20385;-35
2022/10/22 05:46:57;;;;;;;19.53;5.13;;;;;;;;;;4948986;28;21196;-35
2022/10/22 05:49:23;;;;;;;12.23;4.90;;;;;;;;;;4952130;28;20185;-34
2022/10/22 05:51:49;;;;;;;11.97;4.57;;;;;;;;;;4949650;28;20725;-36
2022/10/22 05:54:16;;;;;;;15.47;5.23;;;;;;;;;;4951950;28;20186;-35
2022/10/22 05:56:42;;;;;;;24.93;5.87;;;;;;;;;;4950936;28;20205;-35
2022/10/22 05:59:09;;;;;;;15.07;5.70;;;;;;;;;;4947728;28;20174;-35
2022/10/22 06:01:36;;;;;;;10.90;4.60;;;;;;;;;;4951221;28;20182;-36
2022/10/22 06:04:04;;;;;;;14.33;4.77;;;;;;;;;;4957132;28;20245;-35
2022/10/22 06:06:34;;;;;;;15.83;5.30;;;;;;;;;;4954834;28;20607;-35
2022/10/22 06:09:18;;;;;;;12.17;4.60;;;;;;;;;;4952031;28;20611;-35
2022/10/22 06:11:45;;;;;;;10.50;5.17;;;;;;;;;;4952822;28;20209;-35
2022/10/22 06:14:11;;;;;;;9.53;4.80;;;;;;;;;;4953717;28;20193;-35
2022/10/22 06:16:37;;;;;;;11.60;4.90;;;;;;;;;;4946206;28;20317;-35
2022/10/22 06:19:03;;;;;;;14.60;5.03;;;;;;;;;;4944778;28;20953;-35
2022/10/22 06:21:30;;;;;;;10.73;4.93;;;;;;;;;;4946503;28;20578;-35
2022/10/22 06:23:57;;;;;;;11.57;5.87;;;;;;;;;;4950294;28;20245;-36
2022/10/22 06:26:23;;;;;;;16.70;5.20;;;;;;;;;;4949781;28;20405;-35
2022/10/22 06:28:49;;;;;;;11.13;5.67;;;;;;;;;;4955520;28;20373;-35
2022/10/22 06:31:15;;;;;;;18.23;5.87;;;;;;;;;;4948525;28;20162;-35
2022/10/22 06:33:42;;;;;;;14.17;5.17;;;;;;;;;;4946243;28;20626;-35
2022/10/22 06:36:10;;;;;;;14.53;5.00;;;;;;;;;;4953875;28;20273;-35
2022/10/22 06:38:36;;;;;;;14.87;4.63;;;;;;;;;;4948378;28;21005;-35
2022/10/22 06:41:06;;;;;;;9.47;4.43;;;;;;;;;;4946806;28;20183;-35
2022/10/22 06:43:32;;;;;;;10.50;4.27;;;;;;;;;;4954484;28;20186;-34
2022/10/22 06:45:59;;;;;;;15.13;4.33;;;;;;;;;;4948508;28;20182;-35
2022/10/22 06:48:25;;;;;;;11.10;4.47;;;;;;;;;;4919554;28;21042;-36
2022/10/22 06:50:52;;;;;;;11.13;4.83;;;;;;;;;;4948743;28;20182;-36
2022/10/22 06:53:18;;;;;;;10.33;4.07;;;;;;;;;;4951023;28;20302;-35
2022/10/22 06:55:44;;;;;;;14.87;4.50;;;;;;;;;;4945009;28;20186;-35
2022/10/22 06:58:10;;;;;;;10.60;4.00;;;;;;;;;;4943143;28;20185;-35
2022/10/22 07:00:36;;;;;;;11.53;4.03;;;;;;;;;;4945030;28;20736;-36
2022/10/22 07:03:02;;;;;;;8.40;4.07;;;;;;;;;;4949639;28;20174;-35
2022/10/22 07:05:28;;;;;;;14.53;5.50;;;;;;;;;;4950120;28;20175;-35
2022/10/22 07:07:54;;;;;;;12.93;4.47;;;;;;;;;;4951417;28;20697;-35
2022/10/22 07:10:20;;;;;;;9.73;4.33;;;;;;;;;;4947696;28;20188;-35
2022/10/22 07:12:46;;;;;;;12.63;5.07;;;;;;;;;;4950460;28;20407;-35
2022/10/22 07:15:13;;;;;;;11.27;4.90;;;;;;;;;;4952109;28;20583;-35
2022/10/22 07:17:39;;;;;;;11.53;4.60;;;;;;;;;;4949867;28;20171;-36
2022/10/22 07:20:05;;;;;;;19.07;7.07;;;;;;;;;;4947704;28;20384;-36
2022/10/22 07:22:31;;;;;;;15.40;5.77;;;;;;;;;;4950783;28;20579;-35
2022/10/22 07:24:57;;;;;;;12.70;5.73;;;;;;;;;;4949796;28;20549;-35
2022/10/22 07:27:23;;;;;;;11.33;5.73;;;;;;;;;;4954547;28;20524;-35
2022/10/22 07:29:49;;;;;;;13.83;5.33;;;;;;;;;;4953860;28;20197;-35
2022/10/22 07:32:16;;;;;;;15.20;5.27;;;;;;;;;;4955586;28;20657;-34
2022/10/22 07:34:42;;;;;;;16.20;5.90;;;;;;;;;;4951030;28;20186;-35
2022/10/22 07:37:08;;;;;;;14.20;5.90;;;;;;;;;;4956541;28;20171;-35
2022/10/22 07:39:34;;;;;;;12.17;5.60;;;;;;;;;;4956941;28;20186;-35
2022/10/22 07:42:00;;;;;;;14.00;5.73;;;;;;;;;;4949436;28;20658;-34
2022/10/22 07:44:26;;;;;;;13.57;5.50;;;;;;;;;;4944807;28;20425;-35
2022/10/22 07:46:52;;;;;;;17.80;5.70;;;;;;;;;;4950536;28;20650;-35
2022/10/22 07:49:18;;;;;;;16.97;5.60;;;;;;;;;;4949447;28;20260;-35
2022/10/22 07:51:44;;;;;;;14.93;5.90;;;;;;;;;;4948215;28;20475;-34
2022/10/22 07:54:10;;;;;;;14.87;5.83;;;;;;;;;;4948153;28;20221;-35
2022/10/22 07:56:36;;;;;;;13.33;5.97;;;;;;;;;;4947298;28;20679;-35
2022/10/22 07:59:02;;;;;;;15.33;5.77;;;;;;;;;;4947409;28;20346;-35
2022/10/22 08:01:28;;;;;;;20.40;7.37;;;;;;;;;;4950232;28;20300;-35
2022/10/22 08:03:54;;;;;;;18.23;6.33;;;;;;;;;;4946817;28;20175;-35
2022/10/22 08:06:21;;;;;;;12.73;6.47;;;;;;;;;;4947799;28;20178;-35
2022/10/22 08:08:47;;;;;;;20.67;6.87;;;;;;;;;;4949426;28;20175;-35
2022/10/22 08:11:13;;;;;;;17.10;7.50;;;;;;;;;;4954151;28;20220;-35
2022/10/22 08:13:39;;;;;;;17.50;7.07;;;;;;;;;;4956403;28;20182;-35
2022/10/22 08:16:05;;;;;;;16.43;6.57;;;;;;;;;;4959180;28;20186;-35
2022/10/22 08:18:31;;;;;;;16.13;6.93;;;;;;;;;;4954018;28;20189;-35
2022/10/22 08:20:57;;;;;;;15.40;6.50;;;;;;;;;;4953629;28;20209;-36
2022/10/22 08:23:24;;;;;;;15.43;6.57;;;;;;;;;;4956460;28;20174;-36
2022/10/22 08:25:50;;;;;;;14.17;7.07;;;;;;;;;;4956098;28;20503;-36
2022/10/22 08:28:16;;;;;;;21.60;7.37;;;;;;;;;;4955247;28;20186;-36
2022/10/22 08:30:43;;;;;;;17.13;5.83;;;;;;;;;;4954266;28;20272;-36
2022/10/22 08:33:10;;;;;;;18.30;6.60;;;;;;;;;;4955788;28;20341;-36
2022/10/22 08:35:36;;;;;;;21.63;5.47;;;;;;;;;;4955434;28;20184;-36
2022/10/22 08:38:02;;;;;;;16.20;5.27;;;;;;;;;;4952731;28;20170;-36
2022/10/22 08:40:31;;;;;;;13.07;4.53;;;;;;;;;;4956886;28;20267;-36
2022/10/22 08:43:15;;;;;;;16.33;4.50;;;;;;;;;;4959139;28;20209;-35
2022/10/22 08:46:00;;;;;;;18.50;5.33;;;;;;;;;;4954758;28;21080;-35
2022/10/22 08:48:45;;;;;;;17.67;5.60;;;;;;;;;;4956849;28;20190;-36
2022/10/22 08:51:15;;;;;;;14.87;4.83;;;;;;;;;;4957075;28;20179;-36
2022/10/22 08:53:59;;;;;;;18.83;5.53;;;;;;;;;;4953832;28;20653;-35
2022/10/22 08:56:26;;;;;;;13.63;5.33;;;;;;;;;;4955670;28;20720;-36
2022/10/22 08:58:59;;;;;;;14.40;4.60;;;;;;;;;;4956349;28;20973;-36
2022/10/22 09:01:44;;;;;;;18.40;5.50;;;;;;;;;;4953736;28;20173;-36
2022/10/22 09:04:24;;;;;;;19.60;5.70;;;;;;;;;;4957178;28;20713;-36
2022/10/22 09:06:50;;;;;;;16.70;5.73;;;;;;;;;;4954592;28;20741;-36
2022/10/22 09:09:17;;;;;;;14.70;5.30;;;;;;;;;;4952436;28;20430;-36
2022/10/22 09:11:45;;;;;;;20.37;6.17;;;;;;;;;;4952543;28;20283;-36
2022/10/22 09:14:13;;;;;;;17.43;6.20;;;;;;;;;;4956056;28;21230;-36
2022/10/22 09:16:52;;;;;;;21.20;6.17;;;;;;;;;;4957817;28;20174;-36
2022/10/22 09:19:27;;;;;;;19.33;5.20;;;;;;;;;;4947940;28;20174;-37
2022/10/22 09:22:12;;;;;;;15.43;5.13;;;;;;;;;;4947092;28;20182;-36
2022/10/22 09:24:38;;;;;;;22.03;6.60;;;;;;;;;;4943534;28;20293;-36
2022/10/22 09:27:11;;;;;;;17.33;6.90;;;;;;;;;;4942645;28;20749;-35
2022/10/22 09:29:38;;;;;;;16.80;6.07;;;;;;;;;;4944555;28;20272;-37
2022/10/22 09:32:04;;;;;;;14.80;5.83;;;;;;;;;;4941079;28;20539;-36
2022/10/22 09:34:31;;;;;;;16.80;6.33;;;;;;;;;;4943393;28;20190;-36
2022/10/22 09:37:01;;;;;;;19.47;5.37;;;;;;;;;;4940655;28;20178;-36
2022/10/22 09:39:29;;;;;;;16.83;5.33;;;;;;;;;;4943207;28;20592;-36
2022/10/22 09:41:55;;;;;;;19.97;5.13;;;;;;;;;;4950768;28;20635;-36
2022/10/22 09:44:21;;;;;;;16.57;5.07;;;;;;;;;;4950894;28;20217;-36
2022/10/22 09:46:47;;;;;;;19.87;6.57;;;;;;;;;;4951618;28;20764;-36
2022/10/22 09:49:15;;;;;;;18.90;6.60;;;;;;;;;;4951936;28;20182;-34
2022/10/22 09:52:01;;;;;;;16.93;6.97;;;;;;;;;;4954342;28;20654;-36
2022/10/22 09:54:33;;;;;;;17.73;7.40;;;;;;;;;;4950118;28;20926;-36
2022/10/22 09:57:12;;;;;;;18.37;7.47;;;;;;;;;;4946919;28;20663;-36
2022/10/22 09:59:42;;;;;;;18.53;7.60;;;;;;;;;;4950290;28;20178;-36
2022/10/22 10:02:13;;;;;;;17.57;7.73;;;;;;;;;;4946485;28;20845;-37
2022/10/22 10:04:46;;;;;;;15.77;7.67;;;;;;;;;;4942078;28;20256;-37
2022/10/22 10:07:16;;;;;;;14.13;7.67;;;;;;;;;;4946356;28;20170;-38
2022/10/22 10:09:43;;;;;;;18.97;7.83;;;;;;;;;;4949680;28;20214;-37
2022/10/22 10:12:18;;;;;;;16.83;7.23;;;;;;;;;;4944316;28;20209;-37
2022/10/22 10:15:04;;;;;;;18.60;7.73;;;;;;;;;;4938768;28;20194;-38
2022/10/22 10:17:38;;;;;;;15.30;7.20;;;;;;;;;;4934919;28;20248;-37
2022/10/22 10:20:10;;;;;;;15.17;7.00;;;;;;;;;;4940860;28;20186;-37
2022/10/22 10:22:42;;;;;;;19.93;6.80;;;;;;;;;;4947667;28;20252;-37
2022/10/22 10:25:27;;;;;;;15.80;7.47;;;;;;;;;;4953128;28;20182;-37
2022/10/22 10:28:13;;;;;;;14.77;6.77;;;;;;;;;;4943365;28;20198;-35
2022/10/22 10:30:47;;;;;;;17.07;7.20;;;;;;;;;;4939822;28;20328;-35
2022/10/22 10:33:16;;;;;;;12.87;6.83;;;;;;;;;;4939005;28;21028;-35
2022/10/22 10:35:53;;;;;;;13.73;7.73;;;;;;;;;;4945468;28;21040;-35
2022/10/22 10:38:32;;;;;;;16.20;7.53;;;;;;;;;;4949016;28;21050;-35
2022/10/22 10:41:04;;;;;;;13.67;7.47;;;;;;;;;;4949744;28;20173;-35
2022/10/22 10:43:42;;;;;;;15.60;8.03;;;;;;;;;;4949715;28;20587;-35
2022/10/22 10:46:27;;;;;;;15.07;7.80;;;;;;;;;;4947484;28;20783;-35
2022/10/22 10:48:59;;;;;;;21.57;8.77;;;;;;;;;;4951675;28;20194;-35
2022/10/22 10:51:42;;;;;;;16.90;8.90;;;;;;;;;;4950004;28;20183;-34
2022/10/22 10:54:27;;;;;;;14.73;9.07;;;;;;;;;;4949198;28;20460;-34
2022/10/22 10:57:11;;;;;;;16.13;8.90;;;;;;;;;;4951735;28;20512;-36
2022/10/22 10:59:46;;;;;;;16.87;9.77;;;;;;;;;;4949278;28;20641;-36
2022/10/22 11:02:22;;;;;;;13.83;8.93;;;;;;;;;;4939527;28;20205;-36
2022/10/22 11:05:13;;;;;;;14.77;9.20;;;;;;;;;;4946021;28;20185;-36
2022/10/22 11:08:00;;;;;;;19.80;10.33;;;;;;;;;;4939923;28;20218;-36
2022/10/22 11:10:30;;;;;;;14.83;9.57;;;;;;;;;;4943972;28;20186;-35
2022/10/22 11:13:01;;;;;;;22.43;10.37;;;;;;;;;;4943941;28;20205;-36
2022/10/22 11:15:27;;;;;;;19.20;10.30;;;;;;;;;;4931177;28;20772;-36
2022/10/22 11:17:57;;;;;;;18.20;10.00;;;;;;;;;;4938536;28;20181;-35
2022/10/22 11:20:28;;;;;;;21.90;10.10;;;;;;;;;;4936607;28;20677;-36
2022/10/22 11:23:01;;;;;;;19.03;10.97;;;;;;;;;;4933986;28;20191;-36
2022/10/22 11:25:29;;;;;;;16.53;10.10;;;;;;;;;;4933719;28;20270;-36
2022/10/22 11:28:11;;;;;;;17.13;9.23;;;;;;;;;;4936867;28;20264;-36
2022/10/22 11:30:37;;;;;;;13.13;8.50;;;;;;;;;;4936530;28;20226;-35
2022/10/22 11:33:06;;;;;;;18.93;10.33;;;;;;;;;;4931900;28;20215;-35
2022/10/22 11:35:37;;;;;;;21.23;9.53;;;;;;;;;;4935055;28;20731;-36
2022/10/22 11:38:05;;;;;;;15.93;8.87;;;;;;;;;;4941490;28;20178;-36
2022/10/22 11:40:38;;;;;;;19.13;9.17;;;;;;;;;;4941536;28;20618;-35
2022/10/22 11:43:05;;;;;;;19.57;9.50;;;;;;;;;;4942974;28;21017;-36
2022/10/22 11:45:42;;;;;;;16.33;8.97;;;;;;;;;;4940343;28;20197;-36
2022/10/22 11:48:11;;;;;;;21.27;10.47;;;;;;;;;;4941573;28;20178;-36
2022/10/22 11:50:53;;;;;;;17.33;10.00;;;;;;;;;;4943252;28;20721;-36
2022/10/22 11:53:25;;;;;;;18.87;11.10;;;;;;;;;;4939713;28;20206;-36
2022/10/22 11:55:58;;;;;;;24.83;10.60;;;;;;;;;;4942008;28;20306;-36
2022/10/22 11:58:30;;;;;;;18.37;10.10;;;;;;;;;;4942820;28;20178;-36
2022/10/22 12:01:02;;;;;;;20.57;9.73;;;;;;;;;;4940956;28;20931;-36
2022/10/22 12:03:31;;;;;;;15.03;8.70;;;;;;;;;;4944216;28;20244;-36
2022/10/22 12:06:17;;;;;;;17.43;8.87;;;;;;;;;;4938916;28;20248;-36
2022/10/22 12:08:49;;;;;;;18.97;8.90;;;;;;;;;;4941964;28;20190;-35
2022/10/22 12:11:21;;;;;;;18.23;8.40;;;;;;;;;;4945964;28;20182;-36
2022/10/22 12:13:57;;;;;;;20.07;9.47;;;;;;;;;;4950225;28;20531;-36
2022/10/22 12:16:23;;;;;;;17.17;9.10;;;;;;;;;;4950924;28;20591;-36
2022/10/22 12:18:55;;;;;;;19.83;9.40;;;;;;;;;;4955634;28;20210;-35
2022/10/22 12:21:21;;;;;;;18.90;8.80;;;;;;;;;;4951288;28;20265;-36
2022/10/22 12:23:47;;;;;;;21.23;9.00;;;;;;;;;;4954192;28;20210;-36
2022/10/22 12:26:27;;;;;;;22.33;9.13;;;;;;;;;;4955261;28;20177;-36
2022/10/22 12:28:57;;;;;;;16.73;8.37;;;;;;;;;;4954149;28;20524;-36
2022/10/22 12:31:23;;;;;;;19.77;9.27;;;;;;;;;;4956035;28;20197;-36
2022/10/22 12:33:56;;;;;;;21.37;9.07;;;;;;;;;;4952918;28;21815;-36
2022/10/22 12:36:22;;;;;;;16.10;8.50;;;;;;;;;;4944500;28;20178;-36
2022/10/22 12:38:48;;;;;;;21.67;9.97;;;;;;;;;;4947820;28;20491;-36
2022/10/22 12:41:14;;;;;;;20.57;9.60;;;;;;;;;;4944463;28;20742;-37
2022/10/22 12:43:40;;;;;;;19.63;10.00;;;;;;;;;;4942757;28;20412;-36
2022/10/22 12:46:12;;;;;;;20.03;9.47;;;;;;;;;;4941307;28;20197;-36
2022/10/22 12:48:40;;;;;;;19.33;10.13;;;;;;;;;;4944205;28;20175;-36
2022/10/22 12:51:08;;;;;;;16.70;9.00;;;;;;;;;;4942110;28;20186;-35
2022/10/22 12:53:38;;;;;;;22.57;10.60;;;;;;;;;;4951111;28;20201;-36
2022/10/22 12:56:10;;;;;;;23.60;11.10;;;;;;;;;;4951708;28;20182;-36
2022/10/22 12:58:41;;;;;;;22.07;12.43;;;;;;;;;;4946477;28;20505;-37
2022/10/22 13:01:10;;;;;;;23.80;12.73;;;;;;;;;;4941460;28;20202;-36
2022/10/22 13:03:37;;;;;;;27.70;14.83;;;;;;;;;;4941612;28;20182;-37
2022/10/22 13:06:19;;;;;;;26.53;14.80;;;;;;;;;;4939450;28;20185;-37
2022/10/22 13:08:45;;;;;;;22.80;13.93;;;;;;;;;;4941752;28;20182;-37
2022/10/22 13:11:11;;;;;;;25.00;13.87;;;;;;;;;;4943758;28;20209;-37
2022/10/22 13:13:41;;;;;;;26.03;13.70;;;;;;;;;;4939890;28;20209;-37
2022/10/22 13:16:24;;;;;;;21.27;13.77;;;;;;;;;;4938017;28;20202;-37
2022/10/22 13:18:51;;;;;;;24.70;13.13;;;;;;;;;;4945211;28;20178;-37
2022/10/22 13:21:29;;;;;;;26.63;14.00;;;;;;;;;;4938587;28;20178;-37
2022/10/22 13:23:57;;;;;;;25.07;13.53;;;;;;;;;;4939541;28;20216;-37
2022/10/22 13:26:25;;;;;;;27.20;13.60;;;;;;;;;;4940238;28;20560;-37
2022/10/22 13:28:55;;;;;;;27.97;13.80;;;;;;;;;;4941889;28;20261;-37
2022/10/22 13:31:31;;;;;;;29.30;13.37;;;;;;;;;;4939553;28;20466;-37
2022/10/22 13:33:58;;;;;;;26.77;13.97;;;;;;;;;;4945739;28;20413;-36
2022/10/22 13:36:24;;;;;;;27.30;14.30;;;;;;;;;;4953343;28;20174;-36
2022/10/22 13:38:50;;;;;;;23.27;13.27;;;;;;;;;;4954321;28;20495;-36
2022/10/22 13:41:19;;;;;;;23.87;12.83;;;;;;;;;;4951426;28;20240;-36
2022/10/22 13:43:45;;;;;;;27.20;15.60;;;;;;;;;;4939129;28;20182;-36
2022/10/22 13:46:11;;;;;;;25.67;15.20;;;;;;;;;;4942776;28;20594;-35
2022/10/22 13:48:38;;;;;;;26.27;14.10;;;;;;;;;;4941568;28;20714;-36
2022/10/22 13:51:07;;;;;;;32.17;14.93;;;;;;;;;;4943394;28;20872;-37
2022/10/22 13:53:33;;;;;;;27.50;14.33;;;;;;;;;;4951098;28;20224;-36
2022/10/22 13:55:59;;;;;;;26.67;15.23;;;;;;;;;;4947531;28;20253;-36
2022/10/22 13:58:25;;;;;;;26.67;15.73;;;;;;;;;;4944840;28;20285;-36
2022/10/22 14:00:54;;;;;;;22.90;15.83;;;;;;;;;;4948170;28;20179;-37
2022/10/22 14:03:21;;;;;;;27.60;15.60;;;;;;;;;;4954274;28;20170;-36
2022/10/22 14:05:48;;;;;;;32.43;17.27;;;;;;;;;;4946935;28;20239;-36
2022/10/22 14:08:16;;;;;;;28.53;17.37;;;;;;;;;;4947572;28;20186;-36
2022/10/22 14:10:42;;;;;;;25.90;15.90;;;;;;;;;;4952649;28;20190;-36
2022/10/22 14:13:12;;;;;;;27.00;15.10;;;;;;;;;;4949105;28;20616;-36
2022/10/22 14:15:38;;;;;;;31.30;16.27;;;;;;;;;;4945117;28;20719;-35
2022/10/22 14:18:05;;;;;;;28.90;15.47;;;;;;;;;;4948000;28;20257;-35
2022/10/22 14:20:32;;;;;;;27.90;16.37;;;;;;;;;;4950707;28;20184;-36
2022/10/22 14:23:21;;;;;;;30.67;16.33;;;;;;;;;;4946558;28;20596;-36
2022/10/22 14:25:49;;;;;;;27.00;16.07;;;;;;;;;;4954417;28;20495;-35
2022/10/22 14:28:16;;;;;;;28.50;16.50;;;;;;;;;;4948984;28;20921;-36
2022/10/22 14:30:42;;;;;;;32.43;17.43;;;;;;;;;;4951324;28;20182;-36
2022/10/22 14:33:20;;;;;;;33.20;16.97;;;;;;;;;;4950719;28;20225;-37
2022/10/22 14:35:49;;;;;;;31.07;16.33;;;;;;;;;;4951877;28;20333;-37
2022/10/22 14:38:16;;;;;;;34.53;16.83;;;;;;;;;;4949746;28;20528;-37
2022/10/22 14:40:42;;;;;;;28.47;17.00;;;;;;;;;;4951759;28;20560;-37